sensor_id;sensor_type;location;lat;lon;timestamp;pressure;altitude;pressure_sealevel;temperature;humidity
72330;BME280;60660;52.076;5.110;2023-03-23T00:01:19;100213.70;;;9.95;44.83
72330;BME280;60660;52.076;5.110;2023-03-23T00:03:42;100222.65;;;10.10;42.97
72330;BME280;60660;52.076;5.110;2023-03-23T00:06:08;100224.98;;;8.85;45.54
72330;BME280;60660;52.076;5.110;2023-03-23T00:08:35;100224.88;;;8.17;46.45
72330;BME280;60660;52.076;5.110;2023-03-23T00:10:59;100218.13;;;9.53;44.28
72330;BME280;60660;52.076;5.110;2023-03-23T00:13:26;100223.90;;;9.33;44.88
72330;BME280;60660;52.076;5.110;2023-03-23T00:15:50;100211.76;;;9.41;44.04
72330;BME280;60660;52.076;5.110;2023-03-23T00:18:15;100213.06;;;9.67;43.73
72330;BME280;60660;52.076;5.110;2023-03-23T00:20:40;100212.44;;;9.23;44.37
72330;BME280;60660;52.076;5.110;2023-03-23T00:23:06;100208.98;;;9.78;43.74
72330;BME280;60660;52.076;5.110;2023-03-23T00:25:31;100209.02;;;10.12;42.59
72330;BME280;60660;52.076;5.110;2023-03-23T00:27:56;100203.60;;;9.73;43.78
72330;BME280;60660;52.076;5.110;2023-03-23T00:30:22;100206.55;;;8.98;44.06
72330;BME280;60660;52.076;5.110;2023-03-23T00:32:47;100200.53;;;8.42;45.42
72330;BME280;60660;52.076;5.110;2023-03-23T00:35:12;100187.00;;;8.48;45.84
72330;BME280;60660;52.076;5.110;2023-03-23T00:37:38;100182.55;;;7.95;47.57
72330;BME280;60660;52.076;5.110;2023-03-23T00:40:04;100178.49;;;8.18;47.30
72330;BME280;60660;52.076;5.110;2023-03-23T00:42:28;100184.97;;;8.45;45.67
72330;BME280;60660;52.076;5.110;2023-03-23T00:44:54;100185.18;;;9.36;44.86
72330;BME280;60660;52.076;5.110;2023-03-23T00:47:19;100179.86;;;9.74;42.91
72330;BME280;60660;52.076;5.110;2023-03-23T00:49:45;100171.31;;;8.62;44.96
72330;BME280;60660;52.076;5.110;2023-03-23T00:52:10;100171.02;;;8.75;44.57
72330;BME280;60660;52.076;5.110;2023-03-23T00:54:35;100175.04;;;8.56;45.16
72330;BME280;60660;52.076;5.110;2023-03-23T00:57:00;100171.77;;;9.54;43.54
72330;BME280;60660;52.076;5.110;2023-03-23T00:59:26;100170.67;;;10.32;42.07
72330;BME280;60660;52.076;5.110;2023-03-23T01:01:51;100163.25;;;10.39;41.03
72330;BME280;60660;52.076;5.110;2023-03-23T01:04:16;100157.68;;;9.59;42.11
72330;BME280;60660;52.076;5.110;2023-03-23T01:06:44;100159.85;;;9.72;41.95
72330;BME280;60660;52.076;5.110;2023-03-23T01:09:08;100152.78;;;9.30;43.62
72330;BME280;60660;52.076;5.110;2023-03-23T01:11:34;100157.68;;;9.02;43.68
72330;BME280;60660;52.076;5.110;2023-03-23T01:13:58;100167.10;;;8.74;43.65
72330;BME280;60660;52.076;5.110;2023-03-23T01:16:23;100174.95;;;9.17;42.59
72330;BME280;60660;52.076;5.110;2023-03-23T01:18:48;100170.29;;;10.17;42.54
72330;BME280;60660;52.076;5.110;2023-03-23T01:21:16;100144.59;;;9.57;41.98
72330;BME280;60660;52.076;5.110;2023-03-23T01:23:39;100140.38;;;8.89;42.62
72330;BME280;60660;52.076;5.110;2023-03-23T01:26:05;100147.63;;;9.63;42.36
72330;BME280;60660;52.076;5.110;2023-03-23T01:28:30;100141.63;;;9.80;41.82
72330;BME280;60660;52.076;5.110;2023-03-23T01:30:59;100132.92;;;10.01;41.02
72330;BME280;60660;52.076;5.110;2023-03-23T01:33:19;100130.55;;;8.72;43.47
72330;BME280;60660;52.076;5.110;2023-03-23T01:35:45;100137.06;;;9.90;41.71
72330;BME280;60660;52.076;5.110;2023-03-23T01:38:10;100128.70;;;7.97;44.16
72330;BME280;60660;52.076;5.110;2023-03-23T01:40:35;100122.83;;;9.13;43.54
72330;BME280;60660;52.076;5.110;2023-03-23T01:43:01;100122.45;;;8.86;44.19
72330;BME280;60660;52.076;5.110;2023-03-23T01:45:30;100124.87;;;9.50;42.82
72330;BME280;60660;52.076;5.110;2023-03-23T01:47:55;100122.18;;;7.85;44.84
72330;BME280;60660;52.076;5.110;2023-03-23T01:50:17;100124.59;;;9.26;43.47
72330;BME280;60660;52.076;5.110;2023-03-23T01:52:41;100137.18;;;9.85;41.74
72330;BME280;60660;52.076;5.110;2023-03-23T01:55:08;100124.83;;;9.60;41.54
72330;BME280;60660;52.076;5.110;2023-03-23T01:57:32;100121.09;;;9.35;41.47
72330;BME280;60660;52.076;5.110;2023-03-23T01:59:59;100120.77;;;10.42;40.86
72330;BME280;60660;52.076;5.110;2023-03-23T02:02:24;100119.47;;;9.07;42.24
72330;BME280;60660;52.076;5.110;2023-03-23T02:04:48;100117.15;;;9.81;41.63
72330;BME280;60660;52.076;5.110;2023-03-23T02:07:15;100112.86;;;9.81;41.56
72330;BME280;60660;52.076;5.110;2023-03-23T02:09:38;100113.71;;;9.31;41.63
72330;BME280;60660;52.076;5.110;2023-03-23T02:12:04;100119.46;;;10.11;41.25
72330;BME280;60660;52.076;5.110;2023-03-23T02:14:29;100117.67;;;10.03;41.21
72330;BME280;60660;52.076;5.110;2023-03-23T02:16:58;100111.63;;;9.51;42.45
72330;BME280;60660;52.076;5.110;2023-03-23T02:19:34;100118.11;;;9.69;42.84
72330;BME280;60660;52.076;5.110;2023-03-23T02:22:07;100119.02;;;8.89;44.25
72330;BME280;60660;52.076;5.110;2023-03-23T02:24:50;100114.01;;;8.98;44.03
72330;BME280;60660;52.076;5.110;2023-03-23T02:26:46;100122.71;;;9.47;42.37
72330;BME280;60660;52.076;5.110;2023-03-23T02:29:18;100115.88;;;8.89;43.75
72330;BME280;60660;52.076;5.110;2023-03-23T02:31:40;100122.17;;;9.84;42.25
72330;BME280;60660;52.076;5.110;2023-03-23T02:33:55;100113.28;;;9.61;42.63
72330;BME280;60660;52.076;5.110;2023-03-23T02:36:21;100119.75;;;9.78;42.60
72330;BME280;60660;52.076;5.110;2023-03-23T02:38:46;100120.70;;;9.87;41.57
72330;BME280;60660;52.076;5.110;2023-03-23T02:41:08;100118.20;;;9.90;41.51
72330;BME280;60660;52.076;5.110;2023-03-23T02:43:36;100111.44;;;8.40;42.67
72330;BME280;60660;52.076;5.110;2023-03-23T02:45:58;100118.73;;;10.06;42.07
72330;BME280;60660;52.076;5.110;2023-03-23T02:48:28;100106.23;;;7.52;44.78
72330;BME280;60660;52.076;5.110;2023-03-23T02:50:51;100119.02;;;9.16;43.37
72330;BME280;60660;52.076;5.110;2023-03-23T02:53:19;100112.21;;;9.46;42.45
72330;BME280;60660;52.076;5.110;2023-03-23T02:55:41;100106.66;;;9.53;42.52
72330;BME280;60660;52.076;5.110;2023-03-23T02:58:04;100104.43;;;9.65;42.31
72330;BME280;60660;52.076;5.110;2023-03-23T03:00:29;100110.13;;;8.93;42.14
72330;BME280;60660;52.076;5.110;2023-03-23T03:02:56;100094.57;;;9.44;42.42
72330;BME280;60660;52.076;5.110;2023-03-23T03:05:30;100103.87;;;9.12;43.22
72330;BME280;60660;52.076;5.110;2023-03-23T03:07:54;100108.06;;;9.14;42.71
72330;BME280;60660;52.076;5.110;2023-03-23T03:10:13;100108.86;;;9.61;41.84
72330;BME280;60660;52.076;5.110;2023-03-23T03:12:42;100107.73;;;9.44;42.56
72330;BME280;60660;52.076;5.110;2023-03-23T03:15:10;100105.58;;;9.36;42.91
72330;BME280;60660;52.076;5.110;2023-03-23T03:17:29;100096.76;;;9.50;42.20
72330;BME280;60660;52.076;5.110;2023-03-23T03:19:56;100095.54;;;9.56;41.66
72330;BME280;60660;52.076;5.110;2023-03-23T03:22:18;100093.55;;;9.94;41.41
72330;BME280;60660;52.076;5.110;2023-03-23T03:24:43;100097.14;;;9.60;41.41
72330;BME280;60660;52.076;5.110;2023-03-23T03:27:11;100093.86;;;8.69;42.29
72330;BME280;60660;52.076;5.110;2023-03-23T03:29:34;100094.09;;;9.33;41.71
72330;BME280;60660;52.076;5.110;2023-03-23T03:32:00;100091.87;;;9.15;43.00
72330;BME280;60660;52.076;5.110;2023-03-23T03:34:23;100082.32;;;9.11;43.68
72330;BME280;60660;52.076;5.110;2023-03-23T03:36:50;100076.31;;;9.51;42.91
72330;BME280;60660;52.076;5.110;2023-03-23T03:39:15;100078.61;;;8.14;44.80
72330;BME280;60660;52.076;5.110;2023-03-23T03:41:39;100078.25;;;8.71;43.87
72330;BME280;60660;52.076;5.110;2023-03-23T03:44:05;100088.76;;;8.54;43.89
72330;BME280;60660;52.076;5.110;2023-03-23T03:46:29;100079.30;;;9.48;42.97
72330;BME280;60660;52.076;5.110;2023-03-23T03:48:55;100091.73;;;9.29;42.28
72330;BME280;60660;52.076;5.110;2023-03-23T03:51:20;100089.11;;;8.48;43.91
72330;BME280;60660;52.076;5.110;2023-03-23T03:53:45;100084.35;;;8.95;43.43
72330;BME280;60660;52.076;5.110;2023-03-23T03:56:10;100088.95;;;9.46;42.66
72330;BME280;60660;52.076;5.110;2023-03-23T03:58:36;100085.50;;;9.64;41.37
72330;BME280;60660;52.076;5.110;2023-03-23T04:01:01;100087.97;;;9.60;42.03
72330;BME280;60660;52.076;5.110;2023-03-23T04:03:27;100089.94;;;9.25;41.88
72330;BME280;60660;52.076;5.110;2023-03-23T04:05:51;100087.53;;;9.34;42.49
72330;BME280;60660;52.076;5.110;2023-03-23T04:08:16;100086.02;;;8.41;43.59
72330;BME280;60660;52.076;5.110;2023-03-23T04:10:42;100092.58;;;9.02;42.72
72330;BME280;60660;52.076;5.110;2023-03-23T04:13:08;100081.53;;;9.29;42.16
72330;BME280;60660;52.076;5.110;2023-03-23T04:15:32;100093.54;;;8.54;43.12
72330;BME280;60660;52.076;5.110;2023-03-23T04:17:58;100096.10;;;8.83;43.03
72330;BME280;60660;52.076;5.110;2023-03-23T04:20:23;100092.31;;;8.87;42.12
72330;BME280;60660;52.076;5.110;2023-03-23T04:22:49;100088.50;;;9.12;41.61
72330;BME280;60660;52.076;5.110;2023-03-23T04:25:15;100094.36;;;8.64;42.77
72330;BME280;60660;52.076;5.110;2023-03-23T04:27:39;100113.09;;;9.11;42.56
72330;BME280;60660;52.076;5.110;2023-03-23T04:30:05;100113.77;;;8.83;43.38
72330;BME280;60660;52.076;5.110;2023-03-23T04:32:29;100112.78;;;8.55;42.83
72330;BME280;60660;52.076;5.110;2023-03-23T04:34:55;100113.04;;;8.98;42.25
72330;BME280;60660;52.076;5.110;2023-03-23T04:37:20;100122.40;;;8.88;42.14
72330;BME280;60660;52.076;5.110;2023-03-23T04:39:45;100124.43;;;7.98;43.41
72330;BME280;60660;52.076;5.110;2023-03-23T04:42:10;100125.13;;;8.80;42.44
72330;BME280;60660;52.076;5.110;2023-03-23T04:44:35;100127.94;;;9.04;41.90
72330;BME280;60660;52.076;5.110;2023-03-23T04:47:00;100128.61;;;9.21;41.14
72330;BME280;60660;52.076;5.110;2023-03-23T04:49:26;100129.98;;;9.97;39.89
72330;BME280;60660;52.076;5.110;2023-03-23T04:51:51;100131.38;;;8.86;41.51
72330;BME280;60660;52.076;5.110;2023-03-23T04:54:16;100131.94;;;8.32;43.05
72330;BME280;60660;52.076;5.110;2023-03-23T04:56:46;100136.11;;;8.01;43.86
72330;BME280;60660;52.076;5.110;2023-03-23T04:59:06;100147.03;;;8.18;44.43
72330;BME280;60660;52.076;5.110;2023-03-23T05:01:32;100153.85;;;8.21;43.72
72330;BME280;60660;52.076;5.110;2023-03-23T05:03:57;100145.11;;;8.92;43.52
72330;BME280;60660;52.076;5.110;2023-03-23T05:06:22;100143.07;;;9.37;42.51
72330;BME280;60660;52.076;5.110;2023-03-23T05:08:49;100145.21;;;9.19;42.63
72330;BME280;60660;52.076;5.110;2023-03-23T05:11:13;100146.93;;;9.05;43.94
72330;BME280;60660;52.076;5.110;2023-03-23T05:13:38;100149.17;;;8.48;45.00
72330;BME280;60660;52.076;5.110;2023-03-23T05:16:04;100148.19;;;8.85;43.45
72330;BME280;60660;52.076;5.110;2023-03-23T05:18:28;100151.96;;;9.89;42.11
72330;BME280;60660;52.076;5.110;2023-03-23T05:20:54;100146.97;;;9.49;42.33
72330;BME280;60660;52.076;5.110;2023-03-23T05:23:19;100154.17;;;8.99;43.07
72330;BME280;60660;52.076;5.110;2023-03-23T05:25:44;100169.80;;;10.12;41.44
72330;BME280;60660;52.076;5.110;2023-03-23T05:28:10;100179.87;;;9.22;42.20
72330;BME280;60660;52.076;5.110;2023-03-23T05:30:36;100174.25;;;9.18;42.94
72330;BME280;60660;52.076;5.110;2023-03-23T05:33:01;100174.33;;;9.46;43.08
72330;BME280;60660;52.076;5.110;2023-03-23T05:35:26;100175.18;;;8.80;44.41
72330;BME280;60660;52.076;5.110;2023-03-23T05:37:50;100181.34;;;8.00;44.51
72330;BME280;60660;52.076;5.110;2023-03-23T05:40:16;100168.09;;;8.47;45.28
72330;BME280;60660;52.076;5.110;2023-03-23T05:42:41;100159.02;;;7.58;46.69
72330;BME280;60660;52.076;5.110;2023-03-23T05:45:08;100167.81;;;8.68;45.75
72330;BME280;60660;52.076;5.110;2023-03-23T05:47:32;100183.96;;;8.71;46.07
72330;BME280;60660;52.076;5.110;2023-03-23T05:49:57;100189.77;;;8.24;46.70
72330;BME280;60660;52.076;5.110;2023-03-23T05:52:22;100212.01;;;8.86;45.99
72330;BME280;60660;52.076;5.110;2023-03-23T05:54:47;100202.69;;;8.21;48.35
72330;BME280;60660;52.076;5.110;2023-03-23T05:57:13;100204.73;;;8.41;48.19
72330;BME280;60660;52.076;5.110;2023-03-23T05:59:38;100205.99;;;8.66;47.70
72330;BME280;60660;52.076;5.110;2023-03-23T06:02:04;100199.02;;;8.14;48.59
72330;BME280;60660;52.076;5.110;2023-03-23T06:04:29;100196.49;;;9.07;47.59
72330;BME280;60660;52.076;5.110;2023-03-23T06:06:54;100194.91;;;8.46;47.65
72330;BME280;60660;52.076;5.110;2023-03-23T06:09:20;100207.12;;;8.50;48.35
72330;BME280;60660;52.076;5.110;2023-03-23T06:11:45;100208.32;;;8.88;47.76
72330;BME280;60660;52.076;5.110;2023-03-23T06:14:11;100203.84;;;8.30;49.13
72330;BME280;60660;52.076;5.110;2023-03-23T06:16:41;100206.52;;;8.96;47.79
72330;BME280;60660;52.076;5.110;2023-03-23T06:19:01;100209.41;;;9.26;46.28
72330;BME280;60660;52.076;5.110;2023-03-23T06:21:27;100204.06;;;9.26;45.05
72330;BME280;60660;52.076;5.110;2023-03-23T06:23:52;100205.44;;;9.24;45.10
72330;BME280;60660;52.076;5.110;2023-03-23T06:26:18;100227.97;;;9.69;44.75
72330;BME280;60660;52.076;5.110;2023-03-23T06:28:42;100231.05;;;9.86;45.08
72330;BME280;60660;52.076;5.110;2023-03-23T06:31:07;100233.97;;;10.17;44.04
72330;BME280;60660;52.076;5.110;2023-03-23T06:33:33;100245.87;;;9.10;44.70
72330;BME280;60660;52.076;5.110;2023-03-23T06:35:58;100239.99;;;9.70;45.24
72330;BME280;60660;52.076;5.110;2023-03-23T06:38:23;100245.87;;;8.53;46.51
72330;BME280;60660;52.076;5.110;2023-03-23T06:40:51;100246.07;;;9.05;47.04
72330;BME280;60660;52.076;5.110;2023-03-23T06:43:15;100249.57;;;8.45;47.40
72330;BME280;60660;52.076;5.110;2023-03-23T06:45:39;100261.29;;;7.96;48.01
72330;BME280;60660;52.076;5.110;2023-03-23T06:48:05;100257.07;;;8.35;47.66
72330;BME280;60660;52.076;5.110;2023-03-23T06:50:30;100261.87;;;7.95;47.15
72330;BME280;60660;52.076;5.110;2023-03-23T06:52:56;100256.36;;;8.71;46.75
72330;BME280;60660;52.076;5.110;2023-03-23T06:55:21;100246.37;;;8.80;46.78
72330;BME280;60660;52.076;5.110;2023-03-23T06:57:47;100254.91;;;8.41;47.05
72330;BME280;60660;52.076;5.110;2023-03-23T07:00:13;100258.07;;;8.91;46.76
72330;BME280;60660;52.076;5.110;2023-03-23T07:02:37;100254.35;;;7.96;48.43
72330;BME280;60660;52.076;5.110;2023-03-23T07:05:03;100252.52;;;8.37;47.52
72330;BME280;60660;52.076;5.110;2023-03-23T07:07:29;100251.29;;;8.38;47.10
72330;BME280;60660;52.076;5.110;2023-03-23T07:09:53;100262.47;;;8.49;47.45
72330;BME280;60660;52.076;5.110;2023-03-23T07:12:19;100264.74;;;8.55;47.55
72330;BME280;60660;52.076;5.110;2023-03-23T07:14:44;100263.44;;;8.82;46.68
72330;BME280;60660;52.076;5.110;2023-03-23T07:17:09;100261.63;;;9.03;46.18
72330;BME280;60660;52.076;5.110;2023-03-23T07:19:35;100260.45;;;8.44;47.31
72330;BME280;60660;52.076;5.110;2023-03-23T07:22:00;100268.32;;;9.12;45.73
72330;BME280;60660;52.076;5.110;2023-03-23T07:24:26;100273.59;;;9.85;43.66
72330;BME280;60660;52.076;5.110;2023-03-23T07:26:50;100267.98;;;9.37;44.52
72330;BME280;60660;52.076;5.110;2023-03-23T07:29:16;100274.01;;;9.79;43.54
72330;BME280;60660;52.076;5.110;2023-03-23T07:31:41;100269.09;;;8.99;44.66
72330;BME280;60660;52.076;5.110;2023-03-23T07:34:06;100271.21;;;9.29;44.38
72330;BME280;60660;52.076;5.110;2023-03-23T07:36:31;100278.01;;;8.56;44.55
72330;BME280;60660;52.076;5.110;2023-03-23T07:38:58;100283.71;;;9.40;43.69
72330;BME280;60660;52.076;5.110;2023-03-23T07:41:22;100294.62;;;9.29;44.16
72330;BME280;60660;52.076;5.110;2023-03-23T07:43:48;100294.53;;;10.02;42.47
72330;BME280;60660;52.076;5.110;2023-03-23T07:46:13;100292.31;;;10.30;42.04
72330;BME280;60660;52.076;5.110;2023-03-23T07:48:38;100280.65;;;10.21;41.27
72330;BME280;60660;52.076;5.110;2023-03-23T07:51:03;100274.97;;;10.27;42.31
72330;BME280;60660;52.076;5.110;2023-03-23T07:53:29;100269.64;;;9.78;42.54
72330;BME280;60660;52.076;5.110;2023-03-23T07:55:54;100272.34;;;10.35;42.09
72330;BME280;60660;52.076;5.110;2023-03-23T07:58:19;100287.04;;;10.43;42.43
72330;BME280;60660;52.076;5.110;2023-03-23T08:00:45;100292.23;;;9.92;42.70
72330;BME280;60660;52.076;5.110;2023-03-23T08:03:09;100286.98;;;9.84;41.78
72330;BME280;60660;52.076;5.110;2023-03-23T08:05:35;100296.33;;;9.39;42.80
72330;BME280;60660;52.076;5.110;2023-03-23T08:08:00;100302.00;;;10.37;41.98
72330;BME280;60660;52.076;5.110;2023-03-23T08:10:26;100302.00;;;10.22;42.36
72330;BME280;60660;52.076;5.110;2023-03-23T08:12:53;100300.81;;;9.65;42.01
72330;BME280;60660;52.076;5.110;2023-03-23T08:15:16;100300.45;;;10.99;41.00
72330;BME280;60660;52.076;5.110;2023-03-23T08:17:42;100300.62;;;10.32;41.67
72330;BME280;60660;52.076;5.110;2023-03-23T08:20:08;100300.95;;;9.99;42.39
72330;BME280;60660;52.076;5.110;2023-03-23T08:22:32;100298.90;;;10.61;41.13
72330;BME280;60660;52.076;5.110;2023-03-23T08:24:57;100302.02;;;11.66;39.77
72330;BME280;60660;52.076;5.110;2023-03-23T08:27:22;100303.90;;;11.63;39.13
72330;BME280;60660;52.076;5.110;2023-03-23T08:29:48;100308.04;;;11.37;39.31
72330;BME280;60660;52.076;5.110;2023-03-23T08:32:13;100311.29;;;11.77;38.45
72330;BME280;60660;52.076;5.110;2023-03-23T08:34:38;100311.25;;;11.05;39.66
72330;BME280;60660;52.076;5.110;2023-03-23T08:37:04;100311.76;;;10.53;40.07
72330;BME280;60660;52.076;5.110;2023-03-23T08:39:29;100314.81;;;10.57;40.19
72330;BME280;60660;52.076;5.110;2023-03-23T08:41:54;100318.99;;;11.50;40.45
72330;BME280;60660;52.076;5.110;2023-03-23T08:44:19;100325.12;;;13.02;38.86
72330;BME280;60660;52.076;5.110;2023-03-23T08:46:44;100324.70;;;12.95;37.93
72330;BME280;60660;52.076;5.110;2023-03-23T08:49:10;100322.63;;;12.51;36.75
72330;BME280;60660;52.076;5.110;2023-03-23T08:51:35;100331.73;;;12.54;38.41
72330;BME280;60660;52.076;5.110;2023-03-23T08:54:01;100336.80;;;13.24;37.75
72330;BME280;60660;52.076;5.110;2023-03-23T08:56:27;100336.86;;;12.87;37.45
72330;BME280;60660;52.076;5.110;2023-03-23T08:58:51;100333.14;;;12.33;37.73
72330;BME280;60660;52.076;5.110;2023-03-23T09:01:16;100335.32;;;13.07;36.25
72330;BME280;60660;52.076;5.110;2023-03-23T09:03:42;100338.00;;;12.82;36.29
72330;BME280;60660;52.076;5.110;2023-03-23T09:06:09;100340.91;;;12.31;37.87
72330;BME280;60660;52.076;5.110;2023-03-23T09:08:33;100338.38;;;10.58;38.64
72330;BME280;60660;52.076;5.110;2023-03-23T09:10:59;100348.12;;;11.64;37.62
72330;BME280;60660;52.076;5.110;2023-03-23T09:13:23;100348.89;;;11.74;37.65
72330;BME280;60660;52.076;5.110;2023-03-23T09:15:49;100343.43;;;13.42;35.97
72330;BME280;60660;52.076;5.110;2023-03-23T09:18:14;100349.57;;;12.32;36.16
72330;BME280;60660;52.076;5.110;2023-03-23T09:20:38;100342.74;;;10.88;38.66
72330;BME280;60660;52.076;5.110;2023-03-23T09:23:04;100336.09;;;10.92;38.84
72330;BME280;60660;52.076;5.110;2023-03-23T09:25:29;100329.97;;;11.15;38.73
72330;BME280;60660;52.076;5.110;2023-03-23T09:27:56;100332.20;;;11.40;39.53
72330;BME280;60660;52.076;5.110;2023-03-23T09:30:20;100334.07;;;11.85;39.01
72330;BME280;60660;52.076;5.110;2023-03-23T09:32:46;100341.48;;;12.02;38.74
72330;BME280;60660;52.076;5.110;2023-03-23T09:35:11;100346.70;;;11.83;37.79
72330;BME280;60660;52.076;5.110;2023-03-23T09:37:37;100345.76;;;11.73;37.56
72330;BME280;60660;52.076;5.110;2023-03-23T09:40:02;100362.16;;;12.56;35.46
72330;BME280;60660;52.076;5.110;2023-03-23T09:42:38;100345.14;;;11.08;37.83
72330;BME280;60660;52.076;5.110;2023-03-23T09:45:02;100349.39;;;10.17;38.27
72330;BME280;60660;52.076;5.110;2023-03-23T09:47:21;100352.56;;;11.74;37.51
72330;BME280;60660;52.076;5.110;2023-03-23T09:49:48;100357.44;;;11.89;36.98
72330;BME280;60660;52.076;5.110;2023-03-23T09:52:13;100370.84;;;13.51;35.35
72330;BME280;60660;52.076;5.110;2023-03-23T09:54:36;100372.63;;;12.33;34.40
72330;BME280;60660;52.076;5.110;2023-03-23T09:57:00;100374.81;;;12.64;35.97
72330;BME280;60660;52.076;5.110;2023-03-23T09:59:29;100377.98;;;12.72;35.22
72330;BME280;60660;52.076;5.110;2023-03-23T10:01:52;100376.79;;;12.70;36.09
72330;BME280;60660;52.076;5.110;2023-03-23T10:04:24;100380.62;;;12.37;36.43
72330;BME280;60660;52.076;5.110;2023-03-23T10:06:41;100388.39;;;13.82;34.76
72330;BME280;60660;52.076;5.110;2023-03-23T10:09:05;100385.42;;;14.91;33.17
72330;BME280;60660;52.076;5.110;2023-03-23T10:11:37;100388.18;;;13.80;33.26
72330;BME280;60660;52.076;5.110;2023-03-23T10:14:06;100404.20;;;13.47;34.72
72330;BME280;60660;52.076;5.110;2023-03-23T10:16:23;100390.00;;;15.14;32.79
72330;BME280;60660;52.076;5.110;2023-03-23T10:18:51;100390.35;;;14.53;33.38
72330;BME280;60660;52.076;5.110;2023-03-23T10:21:14;100395.51;;;14.13;32.99
72330;BME280;60660;52.076;5.110;2023-03-23T10:23:43;100400.74;;;12.69;33.58
72330;BME280;60660;52.076;5.110;2023-03-23T10:26:08;100398.51;;;12.18;34.04
72330;BME280;60660;52.076;5.110;2023-03-23T10:28:35;100402.02;;;13.00;33.36
72330;BME280;60660;52.076;5.110;2023-03-23T10:30:54;100412.60;;;12.56;33.56
72330;BME280;60660;52.076;5.110;2023-03-23T10:33:22;100416.35;;;13.31;34.10
72330;BME280;60660;52.076;5.110;2023-03-23T10:35:46;100415.66;;;12.82;32.68
72330;BME280;60660;52.076;5.110;2023-03-23T10:38:15;100412.40;;;13.40;33.30
72330;BME280;60660;52.076;5.110;2023-03-23T10:40:49;100409.37;;;13.85;32.26
72330;BME280;60660;52.076;5.110;2023-03-23T10:42:59;100408.72;;;15.51;31.01
72330;BME280;60660;52.076;5.110;2023-03-23T10:45:26;100405.78;;;15.25;31.52
72330;BME280;60660;52.076;5.110;2023-03-23T10:47:52;100399.16;;;15.93;30.12
72330;BME280;60660;52.076;5.110;2023-03-23T10:50:16;100392.04;;;16.93;30.16
72330;BME280;60660;52.076;5.110;2023-03-23T10:52:41;100397.80;;;15.96;30.03
72330;BME280;60660;52.076;5.110;2023-03-23T10:55:07;100403.17;;;14.73;30.32
72330;BME280;60660;52.076;5.110;2023-03-23T10:57:32;100407.39;;;14.94;31.97
72330;BME280;60660;52.076;5.110;2023-03-23T11:00:00;100404.96;;;14.78;31.19
72330;BME280;60660;52.076;5.110;2023-03-23T11:02:23;100404.91;;;14.67;29.93
72330;BME280;60660;52.076;5.110;2023-03-23T11:04:53;100412.36;;;14.75;30.32
72330;BME280;60660;52.076;5.110;2023-03-23T11:07:24;100421.06;;;12.85;31.13
72330;BME280;60660;52.076;5.110;2023-03-23T11:09:38;100416.66;;;11.29;33.10
72330;BME280;60660;52.076;5.110;2023-03-23T11:12:02;100421.07;;;12.32;32.77
72330;BME280;60660;52.076;5.110;2023-03-23T11:14:29;100418.06;;;13.24;32.28
72330;BME280;60660;52.076;5.110;2023-03-23T11:16:54;100405.07;;;16.02;30.41
72330;BME280;60660;52.076;5.110;2023-03-23T11:19:22;100404.16;;;17.28;28.61
72330;BME280;60660;52.076;5.110;2023-03-23T11:21:47;100400.51;;;19.95;26.06
72330;BME280;60660;52.076;5.110;2023-03-23T11:24:08;100394.87;;;17.56;26.56
72330;BME280;60660;52.076;5.110;2023-03-23T11:26:34;100397.10;;;16.13;27.85
72330;BME280;60660;52.076;5.110;2023-03-23T11:29:03;100395.30;;;17.11;28.09
72330;BME280;60660;52.076;5.110;2023-03-23T11:31:27;100393.04;;;16.60;27.30
72330;BME280;60660;52.076;5.110;2023-03-23T11:33:52;100405.08;;;15.41;28.35
72330;BME280;60660;52.076;5.110;2023-03-23T11:36:13;100406.51;;;12.64;30.87
72330;BME280;60660;52.076;5.110;2023-03-23T11:38:38;100397.42;;;13.52;30.53
72330;BME280;60660;52.076;5.110;2023-03-23T11:41:09;100399.62;;;13.46;31.02
72330;BME280;60660;52.076;5.110;2023-03-23T11:43:28;100402.45;;;12.41;32.28
72330;BME280;60660;52.076;5.110;2023-03-23T11:46:02;100402.72;;;11.91;32.71
72330;BME280;60660;52.076;5.110;2023-03-23T11:48:24;100411.86;;;13.45;32.31
72330;BME280;60660;52.076;5.110;2023-03-23T11:50:49;100412.17;;;13.77;31.24
72330;BME280;60660;52.076;5.110;2023-03-23T11:53:13;100408.52;;;13.84;32.02
72330;BME280;60660;52.076;5.110;2023-03-23T11:55:50;100405.87;;;13.97;31.68
72330;BME280;60660;52.076;5.110;2023-03-23T11:58:10;100407.25;;;15.31;29.93
72330;BME280;60660;52.076;5.110;2023-03-23T12:00:24;100406.50;;;13.14;31.91
72330;BME280;60660;52.076;5.110;2023-03-23T12:05:25;100404.81;;;15.03;30.82
72330;BME280;60660;52.076;5.110;2023-03-23T12:07:36;100404.72;;;16.93;29.60
72330;BME280;60660;52.076;5.110;2023-03-23T12:09:58;100405.68;;;18.19;27.53
72330;BME280;60660;52.076;5.110;2023-03-23T12:12:23;100399.11;;;17.22;27.09
72330;BME280;60660;52.076;5.110;2023-03-23T12:14:47;100399.70;;;14.23;30.14
72330;BME280;60660;52.076;5.110;2023-03-23T12:17:20;100393.64;;;12.41;32.05
72330;BME280;60660;52.076;5.110;2023-03-23T12:19:40;100400.63;;;13.06;32.10
72330;BME280;60660;52.076;5.110;2023-03-23T12:22:01;100399.19;;;13.73;31.14
72330;BME280;60660;52.076;5.110;2023-03-23T12:24:36;100406.24;;;12.71;32.25
72330;BME280;60660;52.076;5.110;2023-03-23T12:26:51;100395.87;;;15.20;31.25
72330;BME280;60660;52.076;5.110;2023-03-23T12:29:37;100389.09;;;13.33;31.26
72330;BME280;60660;52.076;5.110;2023-03-23T12:31:49;100390.34;;;14.64;30.08
72330;BME280;60660;52.076;5.110;2023-03-23T12:34:09;100385.26;;;17.56;28.90
72330;BME280;60660;52.076;5.110;2023-03-23T12:36:39;100384.67;;;18.18;27.20
72330;BME280;60660;52.076;5.110;2023-03-23T12:39:05;100386.18;;;18.41;26.26
72330;BME280;60660;52.076;5.110;2023-03-23T12:41:21;100378.71;;;18.32;25.99
72330;BME280;60660;52.076;5.110;2023-03-23T12:43:50;100372.45;;;17.51;26.25
72330;BME280;60660;52.076;5.110;2023-03-23T12:46:22;100373.18;;;17.53;27.16